Glenrock, Wyoming
Current Conditions -  °F | °C
As of 9:53 PM on Monday 20 Oct 2014 (Local Time) from KDGW Reporting Station
Clear Clear  
Wind Chill: 47°   Ceiling: Unl
Heat Index: 47°   Visibility: 10mi
Dew Point: 33°   Wind: 0mph
Humidity: 59%   Direction: NA
Pressure: 30"   Gusts: NA
Location:  42.86°N, 105.87°W
Report Text: KDGW 210353Z AUTO 00000KT 10SM CLR 08/01 A3000 RMK AO2 SLP140 T00830006
Loading
Personal Weather Stations






























Interactive Weather Map New forecast layout! Learn more

10-Day Weather Forecast

Advertisements
Track Severe Weather on mobile